M I D A S
Marine Information and Data Acquisition System
Tripno 1888 of the Zeeleeuw from 2010-05-27 06:36:30 to 2010-05-27 13:59:45
Back to CruiseResearch ActivitiesStationsMapUnderway DataData graphs

EquipmentUnitsComment
TimeDGPSUTC
LatitudeDGPSDM.mWGS84
LongitudeDGPSDM.mWGS84
HeadingGyrodeg 
SOGDGPSknotsSpeed over ground
COGDGPSdegCourse over ground
DepthEcho soundermeters200 kHz
Missing or incorrect values are displayed as -999
Navigation data collected by the RV Zeeleeuw from 2010-05-27 06:23:34 to 2010-05-27 13:57:33
Time Latitude Longitude Heading SOG COG Depth
2010-05-27 06:24:42 51°13.674 2°55.887 101.7 3.4 282 -999
2010-05-27 06:25:42 51°13.687 2°55.792 93.5 3.2 277 -999
2010-05-27 06:26:40 51°13.688 2°55.74 72.3 0.7 275 10.4
2010-05-27 06:27:38 51°13.691 2°55.734 42.9 0.6 6 11.3
2010-05-27 06:28:39 51°13.719 2°55.734 354.4 2.6 347 11.6
2010-05-27 06:29:39 51°13.779 2°55.686 329.5 5.1 328 9.6
2010-05-27 06:30:39 51°13.867 2°55.616 339.6 6.3 338 9.7
2010-05-27 06:31:38 51°13.972 2°55.54 338.7 8.1 337 9.6
2010-05-27 06:32:38 51°14.113 2°55.457 342.7 9.4 339 9.5
2010-05-27 06:33:38 51°14.248 2°55.33 326.2 9.4 324 8.9
2010-05-27 06:34:38 51°14.376 2°55.178 320.2 10 317 9.3
2010-05-27 06:35:38 51°14.516 2°55 325.3 11.5 319 9.8
2010-05-27 06:36:38 51°14.665 2°54.794 328 12.1 318 10.4
2010-05-27 06:37:38 51°14.82 2°54.579 327.2 12.7 317 9.4
2010-05-27 06:38:38 51°14.993 2°54.389 339.7 12.1 332 5.5
2010-05-27 06:39:38 51°15.177 2°54.224 335 12.9 326 8.6
2010-05-27 06:40:38 51°15.357 2°54.029 332.5 13.1 324 9.2
2010-05-27 06:41:38 51°15.531 2°53.818 330.5 13.1 323 9.6
2010-05-27 06:42:38 51°15.705 2°53.608 330.3 13.2 323 10.3
2010-05-27 06:43:37 51°15.88 2°53.411 335.3 13.1 327 10.3
2010-05-27 06:44:38 51°16.065 2°53.225 338 12.9 330 10.7
2010-05-27 06:45:38 51°16.251 2°53.062 343.5 12.6 336 10.7
2010-05-27 06:46:38 51°16.44 2°52.914 340.7 12.7 334 10.4
2010-05-27 06:47:38 51°16.629 2°52.771 341.8 12.5 335 9.9
2010-05-27 06:48:38 51°16.815 2°52.629 341.4 12.2 334 8.7
2010-05-27 06:49:38 51°16.997 2°52.486 341.7 12.2 334 8.3
2010-05-27 06:50:38 51°17.18 2°52.338 341.4 12.4 333 8.7
2010-05-27 06:51:38 51°17.358 2°52.17 330.2 12.7 316 10
2010-05-27 06:52:38 51°17.469 2°51.876 308.4 12.9 299 9.3
2010-05-27 06:53:38 51°17.573 2°51.571 307.2 13.1 298 8.4
2010-05-27 06:54:38 51°17.677 2°51.266 308.6 13.2 299 8.3
2010-05-27 06:55:38 51°17.77 2°50.99 309.7 9.4 295 9.9
2010-05-27 06:56:38 51°17.747 2°50.815 237.7 6.4 227 10.5
2010-05-27 06:57:38 51°17.662 2°50.776 159 4.9 171 10
2010-05-27 06:58:38 51°17.618 2°50.837 86.4 2.4 118 9.6
2010-05-27 06:59:38 51°17.605 2°50.863 60.6 1.1 158 9.3
2010-05-27 07:00:38 51°17.591 2°50.858 47.3 0.9 203 9.4
2010-05-27 07:01:38 51°17.577 2°50.848 41.3 0.9 233 9.4
2010-05-27 07:02:38 51°17.577 2°50.846 28.6 0.2 357 9.1
2010-05-27 07:03:38 51°17.578 2°50.841 26 0.4 293 9.2
2010-05-27 07:04:38 51°17.579 2°50.839 32.6 0.1 327 9.2
2010-05-27 07:05:38 51°17.578 2°50.84 37.7 -999 123 9.2
2010-05-27 07:06:38 51°17.577 2°50.843 35.8 0.1 301 9.4
2010-05-27 07:07:38 51°17.577 2°50.842 31.4 0.2 129 9.5
2010-05-27 07:08:38 51°17.578 2°50.84 30.6 0.3 296 9.4
2010-05-27 07:09:38 51°17.578 2°50.84 31.7 0.1 135 9.2
2010-05-27 07:10:38 51°17.579 2°50.84 33.2 0.2 85 9.1
2010-05-27 07:11:38 51°17.578 2°50.841 34.1 0.1 141 9.4
2010-05-27 07:12:38 51°17.578 2°50.84 31.8 0.1 289 9.3
2010-05-27 07:13:38 51°17.579 2°50.84 32.6 0.3 301 9.4
2010-05-27 07:14:38 51°17.579 2°50.84 32 0.1 292 9.5
2010-05-27 07:15:38 51°17.579 2°50.839 32.5 0.2 282 9.2
2010-05-27 07:16:38 51°17.578 2°50.841 33.6 0.1 112 9.4
2010-05-27 07:17:38 51°17.579 2°50.84 30.2 0.1 39 9.3
2010-05-27 07:18:38 51°17.58 2°50.839 31.1 0.1 86 9.4
2010-05-27 07:19:38 51°17.58 2°50.838 33.7 0.1 250 9.2
2010-05-27 07:20:38 51°17.578 2°50.84 35.2 0.2 132 9.4
2010-05-27 07:21:38 51°17.577 2°50.842 35.2 0.1 157 9.6
2010-05-27 07:22:38 51°17.577 2°50.842 33.6 0.2 296 9.6
2010-05-27 07:23:38 51°17.577 2°50.843 31.7 -999 280 9.6
2010-05-27 07:24:38 51°17.577 2°50.842 30.8 0.1 313 9.5
2010-05-27 07:25:38 51°17.578 2°50.842 29.8 0.1 130 9.5
2010-05-27 07:26:38 51°17.578 2°50.841 29.5 0.1 132 9.5
2010-05-27 07:27:38 51°17.578 2°50.841 31.3 0.1 115 9.6
2010-05-27 07:28:38 51°17.578 2°50.84 31.1 0.1 288 9.5
2010-05-27 07:29:38 51°17.578 2°50.84 32 -999 259 9.5
2010-05-27 07:30:38 51°17.579 2°50.839 29.8 -999 267 9.5
2010-05-27 07:31:38 51°17.579 2°50.84 33.3 0.1 100 9.5
2010-05-27 07:32:38 51°17.579 2°50.84 32.5 0.2 118 9.5
2010-05-27 07:33:38 51°17.579 2°50.839 32.1 0.1 122 9.5
2010-05-27 07:34:38 51°17.58 2°50.84 32.3 0.1 128 9.5
2010-05-27 07:35:38 51°17.58 2°50.84 31.6 0.1 239 9.6
2010-05-27 07:36:38 51°17.579 2°50.841 32 0.1 86 9.5
2010-05-27 07:37:38 51°17.58 2°50.839 29.3 0.1 277 9.7
2010-05-27 07:38:38 51°17.58 2°50.839 32.5 0.1 340 9.4
2010-05-27 07:39:38 51°17.579 2°50.839 34.1 0.1 174 9.7
2010-05-27 07:40:38 51°17.577 2°50.84 34.1 0.2 102 9.6
2010-05-27 07:41:38 51°17.578 2°50.84 33.7 0.1 293 9.5
2010-05-27 07:42:38 51°17.577 2°50.839 31.8 0.3 301 9.5
2010-05-27 07:43:38 51°17.578 2°50.84 31.8 0.1 148 9.8
2010-05-27 07:44:38 51°17.577 2°50.839 32 0.2 303 9.6
2010-05-27 07:45:38 51°17.578 2°50.839 31.8 0.1 316 9.6
2010-05-27 07:46:38 51°17.578 2°50.838 30.5 0.2 292 9.5
2010-05-27 07:47:38 51°17.579 2°50.838 33.7 0.1 301 9.6
2010-05-27 07:48:38 51°17.578 2°50.837 34.2 0.1 303 9.7
2010-05-27 07:49:38 51°17.578 2°50.838 36.8 0.1 116 9.6
2010-05-27 07:50:38 51°17.577 2°50.838 36.9 0.1 159 9.8
2010-05-27 07:51:38 51°17.578 2°50.84 37.3 0.1 88 9.7
2010-05-27 07:52:38 51°17.577 2°50.84 37.1 0.1 166 9.6
2010-05-27 07:53:38 51°17.577 2°50.841 36.7 0.2 99 9.8
2010-05-27 07:54:38 51°17.577 2°50.841 33.7 0.2 117 9.7
2010-05-27 07:55:38 51°17.577 2°50.839 32 0.2 313 9.8
2010-05-27 07:56:38 51°17.578 2°50.84 35 0.1 101 9.6
2010-05-27 07:57:38 51°17.577 2°50.841 35.5 0.4 123 9.8
2010-05-27 07:58:38 51°17.577 2°50.841 34.1 0.1 315 9.8
2010-05-27 07:59:38 51°17.577 2°50.84 31.9 0.2 296 9.7
2010-05-27 08:00:38 51°17.578 2°50.839 31.6 0.1 315 9.7
2010-05-27 08:01:38 51°17.578 2°50.839 35 0.1 123 9.7
2010-05-27 08:02:38 51°17.577 2°50.838 36.5 0.1 153 9.6
2010-05-27 08:03:38 51°17.577 2°50.84 38.1 0.1 7 10
2010-05-27 08:04:46 51°17.577 2°50.842 37.6 -999 179 10.1
2010-05-27 08:06:01 51°17.576 2°50.841 34.2 0.1 123 9.9
2010-05-27 08:08:24 51°17.577 2°50.84 32.4 0.3 298 9.7
2010-05-27 08:09:24 51°17.578 2°50.839 33.9 -999 199 9.9
2010-05-27 08:10:24 51°17.578 2°50.838 36.4 0.1 165 10.1
2010-05-27 08:11:24 51°17.578 2°50.84 40.5 0.1 2 9.7
2010-05-27 08:12:25 51°17.577 2°50.842 41.8 0.2 128 10.1
2010-05-27 08:13:24 51°17.576 2°50.844 39.3 -999 95 10.1
2010-05-27 08:14:24 51°17.576 2°50.845 34.4 0.3 139 10.1
2010-05-27 08:15:24 51°17.577 2°50.842 32.1 0.1 314 10.2
2010-05-27 08:16:24 51°17.578 2°50.84 31.3 0.3 309 9.8
2010-05-27 08:17:24 51°17.579 2°50.838 34.1 0.3 288 10
2010-05-27 08:18:24 51°17.578 2°50.838 39.3 -999 239 9.7
2010-05-27 08:19:24 51°17.577 2°50.841 42.3 0.2 117 10.2
2010-05-27 08:20:24 51°17.577 2°50.843 38.8 0.1 101 10.2
2010-05-27 08:21:24 51°17.577 2°50.843 37.2 0.2 292 10.2
2010-05-27 08:22:24 51°17.577 2°50.842 35.4 0.1 296 10.1
2010-05-27 08:23:25 51°17.578 2°50.841 34.4 0.1 348 10.2
2010-05-27 08:24:24 51°17.578 2°50.841 35.9 0.2 133 10.1
2010-05-27 08:25:25 51°17.577 2°50.843 38.6 0.1 100 10.1
2010-05-27 08:26:24 51°17.576 2°50.845 37.2 -999 41 10.1
2010-05-27 08:27:24 51°17.577 2°50.845 31.3 0.1 313 10
2010-05-27 08:28:24 51°17.577 2°50.843 28.9 0.1 350 10.3
2010-05-27 08:29:24 51°17.578 2°50.841 32.8 -999 308 10.1
2010-05-27 08:30:25 51°17.577 2°50.843 38.5 0.1 295 10.2
2010-05-27 08:31:24 51°17.576 2°50.845 38.6 0.2 124 10.3
2010-05-27 08:32:24 51°17.576 2°50.846 35.6 0.2 301 10.1
2010-05-27 08:33:24 51°17.576 2°50.846 32.2 0.3 302 10.2
2010-05-27 08:34:25 51°17.576 2°50.844 28.9 0.2 286 10.5
2010-05-27 08:35:24 51°17.578 2°50.842 29.2 0.3 315 10.3
2010-05-27 08:36:24 51°17.578 2°50.842 33.2 0.1 270 10.4
2010-05-27 08:37:24 51°17.577 2°50.842 35.9 0.1 255 10.4
2010-05-27 08:38:24 51°17.577 2°50.844 37.9 0.3 318 10.5
2010-05-27 08:39:25 51°17.577 2°50.847 35.2 0.2 127 10.2
2010-05-27 08:40:24 51°17.576 2°50.848 31.7 0.1 203 10.2
2010-05-27 08:41:24 51°17.577 2°50.845 27.5 0.4 293 10.3
2010-05-27 08:42:24 51°17.578 2°50.843 26.9 0.3 294 10.4
2010-05-27 08:43:24 51°17.579 2°50.842 30 0.1 306 10.5
2010-05-27 08:44:24 51°17.578 2°50.842 35.8 0.1 225 10.4
2010-05-27 08:45:24 51°17.577 2°50.845 38.5 0.1 107 10.5
2010-05-27 08:46:24 51°17.577 2°50.847 34.9 -999 87 10.5
2010-05-27 08:47:24 51°17.576 2°50.848 31.3 0.2 145 10.5
2010-05-27 08:48:25 51°17.576 2°50.845 28.4 0.1 296 10.6
2010-05-27 08:49:24 51°17.578 2°50.844 28 0.3 309 10.5
2010-05-27 08:50:24 51°17.578 2°50.842 31.2 0.1 270 10.3
2010-05-27 08:51:24 51°17.577 2°50.842 35.9 0.2 290 10.7
2010-05-27 08:52:24 51°17.577 2°50.846 36.6 0.2 105 10.6
2010-05-27 08:53:24 51°17.577 2°50.848 35 0.1 46 10.5
2010-05-27 08:54:24 51°17.576 2°50.849 32.3 0.2 149 10.6
2010-05-27 08:55:24 51°17.575 2°50.849 29.1 0.1 283 10.7
2010-05-27 08:56:24 51°17.576 2°50.848 25.8 0.1 314 10.6
2010-05-27 08:57:24 51°17.577 2°50.846 24.8 0.1 274 10.7
2010-05-27 08:58:24 51°17.577 2°50.845 26.6 0.1 310 10.6
2010-05-27 08:59:24 51°17.577 2°50.844 29.3 0.2 287 10.6
2010-05-27 09:00:24 51°17.577 2°50.845 32.2 0.1 144 10.6
2010-05-27 09:01:24 51°17.576 2°50.847 35.1 0.1 327 10.5
2010-05-27 09:02:24 51°17.576 2°50.85 32.9 0.1 97 10.7
2010-05-27 09:03:24 51°17.576 2°50.85 29.8 0.2 123 10.8
2010-05-27 09:04:24 51°17.576 2°50.849 26.6 0.1 301 10.5
2010-05-27 09:05:24 51°17.577 2°50.848 25.6 0.1 306 10.6
2010-05-27 09:06:24 51°17.577 2°50.847 26.2 0.2 109 10.6
2010-05-27 09:07:24 51°17.576 2°50.848 30.6 0.2 140 10.6
2010-05-27 09:08:24 51°17.576 2°50.85 30.8 0.1 52 10.6
2010-05-27 09:09:24 51°17.577 2°50.851 28.2 0.1 34 10.6
2010-05-27 09:10:24 51°17.576 2°50.851 27 0.1 159 10.8
2010-05-27 09:11:24 51°17.575 2°50.849 26 0.2 283 10.9
2010-05-27 09:12:24 51°17.577 2°50.849 25.8 0.2 349 10.8
2010-05-27 09:13:24 51°17.578 2°50.849 26 -999 292 10.9
2010-05-27 09:14:24 51°17.577 2°50.849 28.7 0.2 148 10.9
2010-05-27 09:15:24 51°17.576 2°50.849 29.3 0.1 294 11.1
2010-05-27 09:16:24 51°17.576 2°50.85 28.2 0.1 46 10.8
2010-05-27 09:17:25 51°17.576 2°50.852 29.1 -999 203 11
2010-05-27 09:18:24 51°17.575 2°50.853 29.6 -999 217 10.8
2010-05-27 09:19:24 51°17.575 2°50.853 24.4 0.2 319 10.8
2010-05-27 09:20:24 51°17.576 2°50.852 19.6 0.1 312 10.9
2010-05-27 09:21:24 51°17.576 2°50.852 19.9 0.1 263 11.2
2010-05-27 09:22:25 51°17.575 2°50.852 22.5 0.1 272 11.1
2010-05-27 09:23:24 51°17.575 2°50.853 21.5 -999 49 11
2010-05-27 09:24:24 51°17.576 2°50.854 20.6 0.1 359 11
2010-05-27 09:25:24 51°17.575 2°50.855 19.9 -999 265 11
2010-05-27 09:26:24 51°17.575 2°50.856 18.2 0.2 274 11.1
2010-05-27 09:27:24 51°17.575 2°50.857 17 -999 66 11.2
2010-05-27 09:28:24 51°17.575 2°50.856 15.3 0.1 195 11.2
2010-05-27 09:29:24 51°17.575 2°50.855 15 0.1 243 11.2
2010-05-27 09:30:24 51°17.576 2°50.854 16.4 -999 302 11.1
2010-05-27 09:31:24 51°17.576 2°50.854 17.5 0.1 334 11
2010-05-27 09:32:24 51°17.576 2°50.855 17.3 0.2 287 11
2010-05-27 09:33:24 51°17.576 2°50.856 16.4 0.1 227 11.4
2010-05-27 09:34:24 51°17.575 2°50.857 15.4 -999 248 11.4
2010-05-27 09:35:24 51°17.576 2°50.858 13.6 0.2 64 11
2010-05-27 09:36:24 51°17.576 2°50.859 12 0.1 312 11.5
2010-05-27 09:37:24 51°17.575 2°50.859 10.2 -999 56 11.4
2010-05-27 09:38:24 51°17.575 2°50.859 7.8 -999 57 11.4
2010-05-27 09:39:24 51°17.575 2°50.859 7.6 0.1 307 11.6
2010-05-27 09:40:24 51°17.575 2°50.859 6.8 0.1 52 11.4
2010-05-27 09:41:24 51°17.575 2°50.86 7 0.1 108 11.5
2010-05-27 09:42:24 51°17.575 2°50.861 6.6 -999 184 11.6
2010-05-27 09:43:24 51°17.576 2°50.863 5.6 0.1 63 11.2
2010-05-27 09:44:24 51°17.577 2°50.866 4.6 0.2 93 11.6
2010-05-27 09:45:24 51°17.577 2°50.868 1.7 0.1 78 11.3
2010-05-27 09:46:24 51°17.577 2°50.87 358.6 0.2 86 11.4
2010-05-27 09:47:24 51°17.578 2°50.872 355.7 0.2 67 11.5
2010-05-27 09:48:24 51°17.579 2°50.874 352.2 0.1 53 11.5
2010-05-27 09:49:24 51°17.58 2°50.875 347.1 0.1 2 11.7
2010-05-27 09:50:24 51°17.581 2°50.876 339.5 0.1 274 11.7
2010-05-27 09:51:24 51°17.581 2°50.876 333.9 0.1 209 11.6
2010-05-27 09:52:24 51°17.58 2°50.876 328.5 0.2 203 11.7
2010-05-27 09:53:24 51°17.579 2°50.876 325.8 0.1 171 11.5
2010-05-27 09:54:24 51°17.578 2°50.874 325.4 0.3 257 11.6
2010-05-27 09:55:24 51°17.579 2°50.873 327.1 0.1 40 11.8
2010-05-27 09:56:24 51°17.579 2°50.872 326.2 -999 295 11.7
2010-05-27 09:57:24 51°17.579 2°50.872 326 0.1 246 11.9
2010-05-27 09:58:24 51°17.579 2°50.873 326.7 -999 53 11.7
2010-05-27 09:59:24 51°17.579 2°50.875 327.7 0.1 44 11.4
2010-05-27 10:00:24 51°17.58 2°50.877 327.7 0.2 41 11.8
2010-05-27 10:01:24 51°17.581 2°50.878 327.4 0.1 261 12.2
2010-05-27 10:02:24 51°17.582 2°50.88 326.2 0.1 27 12.2
2010-05-27 10:03:24 51°17.584 2°50.882 325.5 0.1 44 12.1
2010-05-27 10:04:24 51°17.587 2°50.885 323.8 0.3 41 12.1
2010-05-27 10:05:24 51°17.59 2°50.888 321.6 0.5 40 12.3
2010-05-27 10:06:24 51°17.594 2°50.891 317.9 0.2 29 12.1
2010-05-27 10:07:24 51°17.596 2°50.893 308.6 0.2 28 12.3
2010-05-27 10:08:24 51°17.598 2°50.894 299.5 0.1 177 12.4
2010-05-27 10:09:24 51°17.598 2°50.893 291.9 0.2 216 12.4
2010-05-27 10:10:24 51°17.598 2°50.894 289.1 0.2 24 12.3
2010-05-27 10:11:24 51°17.598 2°50.895 287.9 0.1 41 12.4
2010-05-27 10:12:24 51°17.598 2°50.895 288 0.1 172 12.5
2010-05-27 10:14:26 51°17.598 2°50.895 286.2 0.2 2 12.3
2010-05-27 10:16:04 51°17.6 2°50.895 285.2 -999 22 12.5
2010-05-27 10:17:11 51°17.601 2°50.894 283.9 0.3 203 12.5
2010-05-27 10:18:11 51°17.602 2°50.892 281.9 0.2 207 12.8
2010-05-27 10:19:11 51°17.604 2°50.891 279.4 0.1 330 12.5
2010-05-27 10:20:11 51°17.604 2°50.89 277.5 -999 267 12.6
2010-05-27 10:21:11 51°17.605 2°50.89 274.4 0.2 171 12.9
2010-05-27 10:22:11 51°17.605 2°50.891 271.8 0.2 8 12.5
2010-05-27 10:23:11 51°17.605 2°50.892 270.1 0.2 177 12.7
2010-05-27 10:24:11 51°17.605 2°50.891 270.1 0.2 186 12.5
2010-05-27 10:25:11 51°17.606 2°50.891 269.1 0.1 333 12.7
2010-05-27 10:26:11 51°17.607 2°50.889 268.1 0.1 211 12.6
2010-05-27 10:27:10 51°17.608 2°50.889 266.5 0.1 179 12.4
2010-05-27 10:28:11 51°17.608 2°50.889 263.7 0.1 167 12.8
2010-05-27 10:29:11 51°17.608 2°50.89 262.3 -999 37 12.8
2010-05-27 10:30:11 51°17.608 2°50.891 261.5 0.3 167 12.6
2010-05-27 10:31:11 51°17.608 2°50.891 261.1 -999 249 12.9
2010-05-27 10:32:11 51°17.61 2°50.891 261.7 0.1 314 12.7
2010-05-27 10:33:13 51°17.61 2°50.89 259.5 0.1 341 12.9
2010-05-27 10:34:12 51°17.61 2°50.889 258.4 0.2 347 12.8
2010-05-27 10:35:11 51°17.611 2°50.889 257 0.2 335 12.8
2010-05-27 10:36:10 51°17.611 2°50.89 255.3 0.1 22 13.1
2010-05-27 10:37:11 51°17.611 2°50.89 255.8 0.2 349 12.6
2010-05-27 10:38:11 51°17.611 2°50.891 254.2 0.1 341 12.8
2010-05-27 10:39:11 51°17.61 2°50.891 253.7 0.2 343 12.9
2010-05-27 10:40:11 51°17.611 2°50.891 254.1 0.1 155 12.7
2010-05-27 10:41:10 51°17.611 2°50.891 253.4 0.2 161 13
2010-05-27 10:42:11 51°17.611 2°50.889 253 0.1 268 12.9
2010-05-27 10:43:11 51°17.612 2°50.888 253 -999 312 13.2
2010-05-27 10:44:11 51°17.612 2°50.887 249.6 0.1 332 12.8
2010-05-27 10:45:11 51°17.613 2°50.887 247.6 0.1 354 13
2010-05-27 10:46:11 51°17.613 2°50.889 246.1 0.1 357 12.8
2010-05-27 10:47:11 51°17.613 2°50.891 245 0.2 328 12.8
2010-05-27 10:48:11 51°17.612 2°50.892 244.4 0.2 315 13.1
2010-05-27 10:49:11 51°17.612 2°50.892 245.6 0.2 337 13.1
2010-05-27 10:50:11 51°17.612 2°50.891 246.9 0.1 188 12.9
2010-05-27 10:51:11 51°17.613 2°50.89 246 0.4 325 12.9
2010-05-27 10:52:11 51°17.613 2°50.889 245.6 0.1 160 13
2010-05-27 10:53:11 51°17.613 2°50.888 244.4 0.2 161 12.9
2010-05-27 10:54:11 51°17.613 2°50.888 243 0.1 312 13
2010-05-27 10:55:11 51°17.613 2°50.888 240.9 0.3 332 12.9
2010-05-27 10:56:11 51°17.613 2°50.889 240.3 0.2 150 13
2010-05-27 10:57:11 51°17.613 2°50.889 240.6 0.1 342 13.2
2010-05-27 10:58:11 51°17.613 2°50.889 239.6 0.2 171 13.1
2010-05-27 10:59:11 51°17.613 2°50.89 239.6 0.2 128 13.4
2010-05-27 11:00:11 51°17.613 2°50.89 239.6 -999 101 13.2
2010-05-27 11:01:11 51°17.613 2°50.89 241.3 0.1 345 13.1
2010-05-27 11:02:11 51°17.614 2°50.889 242.2 0.3 319 13.1
2010-05-27 11:03:11 51°17.614 2°50.888 242.2 -999 227 13.2
2010-05-27 11:04:11 51°17.614 2°50.887 241.2 0.1 157 13.2
2010-05-27 11:05:11 51°17.615 2°50.886 239.8 0.1 330 13
2010-05-27 11:06:14 51°17.615 2°50.886 237.6 -999 48 13.1
2010-05-27 11:07:12 51°17.615 2°50.887 236.1 0.2 308 13.2
2010-05-27 11:08:11 51°17.614 2°50.888 235.2 0.1 341 13.1
2010-05-27 11:09:11 51°17.614 2°50.889 237.4 0.1 151 13.3
2010-05-27 11:10:11 51°17.615 2°50.888 237.1 0.1 265 13
2010-05-27 11:11:11 51°17.615 2°50.887 236.3 0.2 292 13
2010-05-27 11:12:11 51°17.616 2°50.887 238.3 0.1 201 13.1
2010-05-27 11:13:11 51°17.616 2°50.886 236 0.2 316 13
2010-05-27 11:14:11 51°17.615 2°50.885 235.2 0.1 151 13.3
2010-05-27 11:15:11 51°17.616 2°50.886 234.5 0.1 143 13
2010-05-27 11:16:10 51°17.616 2°50.887 232.3 0.3 332 13.2
2010-05-27 11:17:11 51°17.615 2°50.888 232.2 -999 347 13.2
2010-05-27 11:18:11 51°17.615 2°50.888 233.6 0.3 321 13.1
2010-05-27 11:19:11 51°17.615 2°50.889 233.8 0.1 151 13.3
2010-05-27 11:20:11 51°17.615 2°50.888 234.6 0.2 330 13.2
2010-05-27 11:21:11 51°17.615 2°50.887 236.3 0.1 154 13.4
2010-05-27 11:22:11 51°17.616 2°50.886 237.2 0.2 164 13
2010-05-27 11:23:10 51°17.616 2°50.885 236 0.1 283 13.1
2010-05-27 11:24:11 51°17.616 2°50.884 234.2 0.1 324 13.1
2010-05-27 11:25:10 51°17.616 2°50.884 234.1 -999 18 13
2010-05-27 11:26:11 51°17.616 2°50.886 234.5 0.1 54 13.1
2010-05-27 11:27:11 51°17.615 2°50.886 235.5 0.2 161 13.2
2010-05-27 11:28:11 51°17.616 2°50.885 235.5 0.2 322 13.2
2010-05-27 11:29:11 51°17.616 2°50.885 235 0.2 309 13
2010-05-27 11:30:11 51°17.615 2°50.885 235.5 0.1 134 13.2
2010-05-27 11:31:11 51°17.616 2°50.886 236.7 0.4 324 12.8
2010-05-27 11:32:11 51°17.616 2°50.886 237.4 0.2 332 13.1
2010-05-27 11:33:11 51°17.615 2°50.886 236.1 0.3 327 13.1
2010-05-27 11:34:11 51°17.615 2°50.886 237.7 0.2 329 13.1
2010-05-27 11:35:11 51°17.616 2°50.885 238.7 0.2 303 13.1
2010-05-27 11:36:11 51°17.616 2°50.885 237.1 0.1 168 13.2
2010-05-27 11:37:11 51°17.615 2°50.885 237.2 0.2 317 13.1
2010-05-27 11:38:11 51°17.615 2°50.886 238.6 0.1 111 13.2
2010-05-27 11:39:11 51°17.615 2°50.887 239.8 0.5 144 13.5
2010-05-27 11:40:11 51°17.616 2°50.886 239.5 -999 351 13.4
2010-05-27 11:41:11 51°17.616 2°50.885 238.8 0.1 312 13.1
2010-05-27 11:42:11 51°17.616 2°50.883 238.2 0.1 310 13.1
2010-05-27 11:43:11 51°17.616 2°50.883 236.5 0.1 346 13.1
2010-05-27 11:44:11 51°17.615 2°50.885 237.2 0.1 127 13.1
2010-05-27 11:45:11 51°17.616 2°50.886 237.8 0.1 352 13.2
2010-05-27 11:46:11 51°17.616 2°50.887 235.5 0.1 315 13.2
2010-05-27 11:47:11 51°17.616 2°50.887 237.5 0.1 142 13.3
2010-05-27 11:48:11 51°17.615 2°50.887 237.4 0.3 151 13.4
2010-05-27 11:49:11 51°17.616 2°50.887 238.1 -999 227 13.3
2010-05-27 11:50:11 51°17.616 2°50.885 238.1 0.2 157 13.3
2010-05-27 11:51:11 51°17.616 2°50.884 234.9 0.1 311 13.1
2010-05-27 11:52:11 51°17.616 2°50.885 234.1 0.2 114 13.1
2010-05-27 11:53:11 51°17.616 2°50.887 233.7 0.3 337 13.3
2010-05-27 11:54:11 51°17.616 2°50.889 234.2 0.1 337 12.9
2010-05-27 11:55:11 51°17.616 2°50.888 234.9 0.1 179 13.4
2010-05-27 11:56:11 51°17.616 2°50.887 234 0.1 314 13.4
2010-05-27 11:57:11 51°17.616 2°50.887 233.9 0.2 145 13.4
2010-05-27 11:58:11 51°17.616 2°50.887 233.8 -999 313 13.4
2010-05-27 11:59:11 51°17.616 2°50.887 233.3 0.2 169 13.5
2010-05-27 12:00:11 51°17.616 2°50.887 233.6 0.2 129 13.2
2010-05-27 12:01:11 51°17.616 2°50.886 233.8 0.4 329 13.2
2010-05-27 12:02:11 51°17.616 2°50.888 232.1 0.1 145 13.3
2010-05-27 12:03:11 51°17.615 2°50.889 233.6 0.4 139 13.3
2010-05-27 12:04:11 51°17.615 2°50.89 234.2 0.1 326 13.1
2010-05-27 12:05:11 51°17.616 2°50.89 236.5 0.3 144 13.4
2010-05-27 12:06:11 51°17.615 2°50.89 236 0.3 149 13.3
2010-05-27 12:07:11 51°17.615 2°50.889 236.7 0.5 147 13.3
2010-05-27 12:08:11 51°17.616 2°50.889 237.4 0.3 145 13.3
2010-05-27 12:09:11 51°17.616 2°50.889 236.8 0.1 150 13.2
2010-05-27 12:10:11 51°17.615 2°50.889 238.1 0.1 298 13
2010-05-27 12:11:11 51°17.615 2°50.889 238.7 0.1 167 13.2
2010-05-27 12:12:11 51°17.615 2°50.888 240 0.5 149 13.6
2010-05-27 12:13:11 51°17.615 2°50.887 240.1 0.1 138 13.3
2010-05-27 12:14:11 51°17.616 2°50.887 239.5 0.1 160 13.2
2010-05-27 12:15:11 51°17.616 2°50.887 238.6 -999 355 13.2
2010-05-27 12:16:11 51°17.616 2°50.888 238.3 0.1 354 13.3
2010-05-27 12:17:11 51°17.615 2°50.889 237.6 -999 144 12.9
2010-05-27 12:18:11 51°17.616 2°50.889 240.6 0.2 326 12.9
2010-05-27 12:19:11 51°17.616 2°50.887 241 0.3 321 13
2010-05-27 12:20:13 51°17.616 2°50.886 241.5 0.1 187 13.3
2010-05-27 12:21:13 51°17.616 2°50.887 239 -999 358 13.2
2010-05-27 12:22:13 51°17.617 2°50.887 238.8 0.1 316 13.1
2010-05-27 12:23:13 51°17.616 2°50.888 238.6 0.1 343 13.1
2010-05-27 12:24:13 51°17.616 2°50.889 240.5 0.2 1 13.3
2010-05-27 12:25:13 51°17.616 2°50.888 240.5 0.3 325 13
2010-05-27 12:26:13 51°17.616 2°50.888 240.7 0.2 161 13.3
2010-05-27 12:27:13 51°17.615 2°50.887 240.5 0.3 163 13.3
2010-05-27 12:28:13 51°17.615 2°50.886 240.3 -999 24 13.3
2010-05-27 12:29:13 51°17.615 2°50.887 238.9 0.1 335 13
2010-05-27 12:30:13 51°17.615 2°50.889 237.6 0.1 118 13.1
2010-05-27 12:31:13 51°17.614 2°50.89 237.8 0.2 137 13.1
2010-05-27 12:32:13 51°17.614 2°50.89 239.4 0.1 317 13
2010-05-27 12:33:13 51°17.614 2°50.89 241.3 0.3 151 13
2010-05-27 12:34:13 51°17.615 2°50.889 241.5 0.2 327 13
2010-05-27 12:35:13 51°17.615 2°50.888 241.8 0.2 157 13.4
2010-05-27 12:36:13 51°17.616 2°50.887 242.3 0.1 156 13.3
2010-05-27 12:37:13 51°17.616 2°50.886 240.9 -999 186 13
2010-05-27 12:38:13 51°17.616 2°50.886 241.1 0.2 323 13.1
2010-05-27 12:39:13 51°17.616 2°50.886 241.1 0.3 148 13
2010-05-27 12:40:13 51°17.616 2°50.885 240.8 0.1 171 13.1
2010-05-27 12:41:13 51°17.616 2°50.885 240 0.1 179 13.1
2010-05-27 12:42:13 51°17.616 2°50.885 239.4 0.1 136 13.1
2010-05-27 12:43:13 51°17.617 2°50.885 238 0.3 334 13.1
2010-05-27 12:44:13 51°17.616 2°50.886 236.7 -999 77 12.9
2010-05-27 12:45:13 51°17.616 2°50.887 235.9 -999 113 13.1
2010-05-27 12:46:13 51°17.616 2°50.888 237.4 0.2 330 13
2010-05-27 12:47:13 51°17.616 2°50.887 238.2 0.2 316 12.9
2010-05-27 12:48:13 51°17.616 2°50.886 238.9 0.1 163 13.1
2010-05-27 12:49:13 51°17.616 2°50.885 238.3 0.1 191 13.1
2010-05-27 12:50:13 51°17.616 2°50.885 236.8 0.1 300 12.8
2010-05-27 12:51:13 51°17.616 2°50.886 236 0.2 126 13.1
2010-05-27 12:52:13 51°17.617 2°50.886 236.7 0.1 328 13
2010-05-27 12:53:13 51°17.617 2°50.886 237.4 0.1 149 13
2010-05-27 12:54:13 51°17.617 2°50.884 237 0.1 164 13
2010-05-27 12:55:13 51°17.616 2°50.884 234.4 0.1 149 12.8
2010-05-27 12:56:13 51°17.617 2°50.883 236.7 0.4 324 12.6
2010-05-27 12:57:13 51°17.617 2°50.885 235.2 0.1 142 13
2010-05-27 12:58:13 51°17.617 2°50.885 233.3 0.2 154 12.8
2010-05-27 12:59:13 51°17.616 2°50.886 236 -999 135 12.9
2010-05-27 13:00:13 51°17.616 2°50.886 235.5 0.2 141 13
2010-05-27 13:01:13 51°17.616 2°50.886 234.7 0.2 320 12.9
2010-05-27 13:02:13 51°17.616 2°50.886 236.1 0.1 117 13
2010-05-27 13:03:13 51°17.617 2°50.885 236.2 0.4 323 12.8
2010-05-27 13:04:13 51°17.616 2°50.885 235.6 0.1 170 13.1
2010-05-27 13:05:13 51°17.616 2°50.885 235.2 0.1 161 12.8
2010-05-27 13:06:13 51°17.616 2°50.885 236.6 -999 227 12.8
2010-05-27 13:07:13 51°17.617 2°50.886 236.8 0.2 139 13
2010-05-27 13:08:13 51°17.617 2°50.886 236.2 -999 157 12.8
2010-05-27 13:09:13 51°17.617 2°50.886 237.7 0.1 131 12.8
2010-05-27 13:10:13 51°17.617 2°50.886 236.1 -999 14 12.8
2010-05-27 13:11:13 51°17.617 2°50.885 236.9 0.1 328 12.8
2010-05-27 13:12:13 51°17.617 2°50.885 237.9 0.2 319 12.6
2010-05-27 13:13:13 51°17.617 2°50.884 237.7 0.1 179 12.7
2010-05-27 13:14:13 51°17.617 2°50.884 235.2 -999 347 12.6
2010-05-27 13:15:13 51°17.617 2°50.884 236.8 -999 109 12.7
2010-05-27 13:16:13 51°17.618 2°50.884 237.8 0.1 344 12.6
2010-05-27 13:17:13 51°17.617 2°50.884 236.5 0.1 285 12.6
2010-05-27 13:18:13 51°17.617 2°50.885 237.2 0.1 111 12.8
2010-05-27 13:19:13 51°17.617 2°50.885 237.3 0.1 330 12.6
2010-05-27 13:20:13 51°17.617 2°50.885 238.2 -999 146 12.8
2010-05-27 13:21:13 51°17.617 2°50.885 237.4 0.1 157 12.8
2010-05-27 13:22:13 51°17.617 2°50.884 238 0.3 178 12.6
2010-05-27 13:23:13 51°17.614 2°50.878 238.2 0.3 201 12.8
2010-05-27 13:24:13 51°17.614 2°50.875 238.9 0.2 356 12.4
2010-05-27 13:25:13 51°17.617 2°50.877 242.7 0.1 30 12.7
2010-05-27 13:26:13 51°17.607 2°50.867 206.9 1.6 186 12.5
2010-05-27 13:27:13 51°17.576 2°50.907 140.5 3.4 113 12.2
2010-05-27 13:28:13 51°17.565 2°51.068 102.7 8.6 96 11.8
2010-05-27 13:29:13 51°17.544 2°51.341 105.6 11.4 100 11.6
2010-05-27 13:30:13 51°17.496 2°51.661 110.8 13.1 104 12.2
2010-05-27 13:31:13 51°17.421 2°51.994 119.3 13.5 114 12.6
2010-05-27 13:32:13 51°17.283 2°52.261 142.7 13 141 12.9
2010-05-27 13:33:13 51°17.103 2°52.441 156.9 12.6 152 12
2010-05-27 13:34:13 51°16.916 2°52.596 160.4 12.8 154 12
2010-05-27 13:35:13 51°16.727 2°52.738 160.2 12.3 154 12.4
2010-05-27 13:36:13 51°16.536 2°52.887 159.7 12.5 154 13.5
2010-05-27 13:37:13 51°16.345 2°53.037 159.6 12.6 154 13.9
2010-05-27 13:38:13 51°16.154 2°53.194 158.3 12.6 153 13.9
2010-05-27 13:39:13 51°15.964 2°53.35 158.3 12.9 154 13.8
2010-05-27 13:40:13 51°15.774 2°53.517 154.7 13.1 149 13.7
2010-05-27 13:41:13 51°15.591 2°53.706 150.9 12.9 147 13
2010-05-27 13:42:13 51°15.41 2°53.899 149.9 13.2 143 12.6
2010-05-27 13:43:13 51°15.237 2°54.11 145.2 13.2 141 12.2
2010-05-27 13:44:13 51°15.069 2°54.333 143.8 13.3 137 11.8
2010-05-27 13:45:13 51°14.913 2°54.579 143 13 138 13.6
2010-05-27 13:46:13 51°14.746 2°54.802 141.7 13 137 13.7
2010-05-27 13:47:13 51°14.569 2°54.999 157.8 13.1 153 13.4
2010-05-27 13:48:13 51°14.377 2°55.148 149.3 12.3 149 12.6
2010-05-27 13:49:13 51°14.253 2°55.283 146.1 7.1 146 12.3
2010-05-27 13:50:13 51°14.178 2°55.384 140.8 6 142 12.8
2010-05-27 13:51:13 51°14.079 2°55.481 148.5 7.9 149 12.9
2010-05-27 13:52:13 51°13.967 2°55.565 159.1 6.6 159 12.8
2010-05-27 13:53:13 51°13.87 2°55.622 156.9 6 156 12.9
2010-05-27 13:54:13 51°13.777 2°55.692 156.8 6.4 155 12.6
2010-05-27 13:55:13 51°13.71 2°55.796 124.3 4.9 123 13.3
2010-05-27 13:56:13 51°13.679 2°55.898 110.8 3.9 111 10.1
2010-05-27 13:57:13 51°13.663 2°55.954 123.6 0.8 124 8